M I D A S
Marine Information and Data Acquisition System
Tripno 1130 of the Zeeleeuw from 2006-07-03 08:53:43 to 2006-07-03 12:58:50
Back to CruiseResearch ActivitiesStationsMapUnderway DataData graphs

EquipmentUnitsComment
TimeDGPSUTC
LatitudeDGPSDM.mWGS84
LongitudeDGPSDM.mWGS84
HeadingGyrodeg 
SOGDGPSknotsSpeed over ground
COGDGPSdegCourse over ground
DepthEcho soundermeters200 kHz
Missing or incorrect values are displayed as -999
Navigation data collected by the RV Zeeleeuw from 2006-07-03 08:50:50 to 2006-07-03 13:09:31
                                                                                    Next 1000 lines
Time Latitude Longitude Heading SOG COG Depth
2006-07-03 08:51:00 51°13.6 2°56.1 122.6 0.1 73 6.1
2006-07-03 08:51:05 51°13.6 2°56.1 121.9 -999 79 6.1
2006-07-03 08:51:10 51°13.6 2°56.1 121.7 -999 170 6.1
2006-07-03 08:51:15 51°13.6 2°56.1 121.3 0.1 203 6.1
2006-07-03 08:51:20 51°13.6 2°56.1 120.8 -999 194 6.1
2006-07-03 08:51:25 51°13.6 2°56.1 120.4 -999 225 6.1
2006-07-03 08:51:30 51°13.6 2°56.1 119.5 -999 88 6.1
2006-07-03 08:51:34 51°13.599 2°56.1 118.8 -999 296 6.2
2006-07-03 08:51:40 51°13.599 2°56.1 117.9 -999 182 6.1
2006-07-03 08:51:45 51°13.599 2°56.1 117.2 0.1 184 6.1
2006-07-03 08:51:50 51°13.599 2°56.1 116.3 -999 150 6.1
2006-07-03 08:51:55 51°13.599 2°56.1 115.4 -999 183 6.1
2006-07-03 08:52:00 51°13.599 2°56.1 114.6 0.1 203 6.1
2006-07-03 08:52:04 51°13.599 2°56.1 113.6 0.1 193 6
2006-07-03 08:52:10 51°13.599 2°56.1 112.9 0.1 216 6
2006-07-03 08:52:15 51°13.599 2°56.099 112.2 0.1 228 6
2006-07-03 08:52:20 51°13.599 2°56.098 111.6 0.4 282 6.2
2006-07-03 08:52:25 51°13.599 2°56.096 111.1 0.7 288 6.4
2006-07-03 08:52:30 51°13.6 2°56.094 111 1.2 286 6.6
2006-07-03 08:52:35 51°13.601 2°56.09 111 1.7 293 6
2006-07-03 08:52:40 51°13.602 2°56.085 111.7 2.1 290 -999
2006-07-03 08:52:45 51°13.603 2°56.08 112.6 2.5 292 -999
2006-07-03 08:52:51 51°13.605 2°56.072 113.1 2.9 295 -999
2006-07-03 08:52:56 51°13.607 2°56.066 113.2 3.2 294 -999
2006-07-03 08:53:01 51°13.609 2°56.058 113.2 3.6 293 -999
2006-07-03 08:53:06 51°13.611 2°56.05 113.2 3.8 292 -999
2006-07-03 08:53:10 51°13.613 2°56.043 113.2 4 293 -999
2006-07-03 08:53:16 51°13.616 2°56.033 113.3 4.2 292 -999
2006-07-03 08:53:21 51°13.618 2°56.024 113.6 4.4 293 -999
2006-07-03 08:53:26 51°13.62 2°56.014 114 4.5 292 -999
2006-07-03 08:53:31 51°13.623 2°56.005 114.6 4.7 293 -999
2006-07-03 08:53:35 51°13.625 2°55.997 115.3 4.8 293 -999
2006-07-03 08:53:41 51°13.628 2°55.985 116.2 4.9 294 -999
2006-07-03 08:53:46 51°13.631 2°55.975 117.5 5 295 -999
2006-07-03 08:53:51 51°13.635 2°55.964 118.4 5.1 295 -999
2006-07-03 08:53:56 51°13.638 2°55.954 119.5 5.3 296 -999
2006-07-03 08:54:01 51°13.642 2°55.943 120.4 5.4 297 -999
2006-07-03 08:54:06 51°13.646 2°55.933 121.3 5.4 299 -999
2006-07-03 08:54:11 51°13.649 2°55.922 122.5 5.5 299 -999
2006-07-03 08:54:16 51°13.653 2°55.911 122.9 5.6 300 -999
2006-07-03 08:54:21 51°13.657 2°55.901 123 5.5 300 -999
2006-07-03 08:54:26 51°13.661 2°55.89 122.8 5.5 301 -999
2006-07-03 08:54:31 51°13.665 2°55.88 122.3 5.5 300 -999
2006-07-03 08:54:36 51°13.668 2°55.869 121.6 5.5 300 -999
2006-07-03 08:54:41 51°13.672 2°55.859 120.6 5.5 300 -999
2006-07-03 08:54:46 51°13.675 2°55.848 119.3 5.5 299 -999
2006-07-03 08:54:50 51°13.678 2°55.839 117.4 5.4 297 -999
2006-07-03 08:54:55 51°13.681 2°55.829 115.9 5.1 296 -999
2006-07-03 08:55:01 51°13.684 2°55.818 114.2 4.8 295 -999
2006-07-03 08:55:06 51°13.687 2°55.809 112.4 4.5 293 -999
2006-07-03 08:55:10 51°13.689 2°55.802 110.5 4.3 292 -999
2006-07-03 08:55:15 51°13.691 2°55.794 108.7 4.1 291 10.8
2006-07-03 08:55:20 51°13.693 2°55.785 107.3 4 290 11.2
2006-07-03 08:55:25 51°13.694 2°55.778 105.4 3.9 290 11.6
2006-07-03 08:55:30 51°13.696 2°55.771 104 3.4 288 12.1
2006-07-03 08:55:35 51°13.697 2°55.765 101.6 2.9 287 12.5
2006-07-03 08:55:40 51°13.698 2°55.761 98.7 2.3 287 12.7
2006-07-03 08:55:45 51°13.699 2°55.757 95.3 1.7 290 12.4
2006-07-03 08:55:50 51°13.699 2°55.756 91.4 1.1 294 12.6
2006-07-03 08:55:55 51°13.7 2°55.755 86.3 0.7 317 12.6
2006-07-03 08:56:00 51°13.7 2°55.755 80.5 0.5 344 12.7
2006-07-03 08:56:04 51°13.701 2°55.755 74.7 0.6 9 12.9
2006-07-03 08:56:10 51°13.702 2°55.755 69.4 0.6 19 13
2006-07-03 08:56:15 51°13.703 2°55.756 64.2 0.7 25 13.1
2006-07-03 08:56:20 51°13.704 2°55.757 59.2 0.8 30 13.4
2006-07-03 08:56:25 51°13.705 2°55.758 54.6 0.8 20 13.4
2006-07-03 08:56:30 51°13.706 2°55.758 50.6 0.5 17 13.5
2006-07-03 08:56:33 51°13.706 2°55.758 47.5 0.3 339 13.5
2006-07-03 08:56:40 51°13.706 2°55.756 45 0.4 272 13.5
2006-07-03 08:56:45 51°13.705 2°55.755 41.8 0.7 243 13.4
2006-07-03 08:56:50 51°13.704 2°55.753 38.9 1 231 13.3
2006-07-03 08:56:55 51°13.703 2°55.751 36.3 1.2 225 13
2006-07-03 08:57:00 51°13.701 2°55.749 34 1.5 221 12.9
2006-07-03 08:57:05 51°13.7 2°55.746 31.7 1.6 220 -999
2006-07-03 08:57:11 51°13.698 2°55.744 29.3 1.4 218 -999
2006-07-03 08:57:16 51°13.696 2°55.742 27.5 1.2 221 -999
2006-07-03 08:57:21 51°13.696 2°55.741 25.4 0.9 220 -999
2006-07-03 08:57:26 51°13.695 2°55.74 23.1 0.6 237 -999
2006-07-03 08:57:30 51°13.695 2°55.74 19.1 0.3 275 -999
2006-07-03 08:57:36 51°13.696 2°55.739 15.4 0.5 327 -999
2006-07-03 08:57:41 51°13.698 2°55.739 10.5 0.8 347 -999
2006-07-03 08:57:46 51°13.699 2°55.738 4.7 1.3 342 -999
2006-07-03 08:57:50 51°13.701 2°55.737 358.3 1.7 347 -999
2006-07-03 08:57:56 51°13.705 2°55.734 350.7 2.4 341 -999
2006-07-03 08:58:01 51°13.709 2°55.731 343.7 2.9 339 -999
2006-07-03 08:58:06 51°13.714 2°55.728 338.9 3.7 334 -999
2006-07-03 08:58:10 51°13.719 2°55.724 337.1 4.3 333 11.9
2006-07-03 08:58:15 51°13.725 2°55.719 336.8 4.9 333 11.2
2006-07-03 08:58:20 51°13.732 2°55.713 336.8 5.6 332 10.5
2006-07-03 08:58:25 51°13.74 2°55.707 336.7 6 333 10.6
2006-07-03 08:58:30 51°13.748 2°55.7 336.3 6.5 332 10.1
2006-07-03 08:58:34 51°13.755 2°55.694 336 7 332 10.3
2006-07-03 08:58:40 51°13.766 2°55.684 335.8 7.3 332 10.4
2006-07-03 08:58:45 51°13.775 2°55.676 335.3 7.6 331 10.5
2006-07-03 08:58:50 51°13.785 2°55.668 335 7.9 331 10.6
2006-07-03 08:58:54 51°13.793 2°55.661 334.7 8.1 331 10.8
2006-07-03 08:59:00 51°13.805 2°55.65 334.5 8.3 331 10.8
2006-07-03 08:59:05 51°13.816 2°55.641 334.7 8.5 332 10.7
2006-07-03 08:59:10 51°13.826 2°55.633 336 8.6 334 10.8
2006-07-03 08:59:15 51°13.837 2°55.624 336.9 8.5 334 10.6
2006-07-03 08:59:19 51°13.845 2°55.618 337.5 8.3 334 10.5
2006-07-03 08:59:25 51°13.857 2°55.609 337.8 8.2 334 10.4
2006-07-03 08:59:30 51°13.867 2°55.601 338.1 8.1 335 10.5
2006-07-03 08:59:35 51°13.877 2°55.593 338.3 8 335 10.8
2006-07-03 08:59:40 51°13.887 2°55.586 338.3 7.9 335 10.7
2006-07-03 08:59:45 51°13.897 2°55.579 338.5 7.8 335 10.9
2006-07-03 08:59:50 51°13.907 2°55.572 338.8 7.8 335 10.9
2006-07-03 08:59:55 51°13.916 2°55.565 339.1 7.8 336 11
2006-07-03 09:00:00 51°13.926 2°55.558 339.5 7.7 336 11.1
2006-07-03 09:00:05 51°13.936 2°55.551 339.7 7.7 336 10.9
2006-07-03 09:00:10 51°13.946 2°55.544 339.6 7.7 336 10.8
2006-07-03 09:00:15 51°13.955 2°55.537 338.9 7.7 335 10.9
2006-07-03 09:00:20 51°13.965 2°55.53 338.9 7.6 336 11
2006-07-03 09:00:25 51°13.974 2°55.523 338.9 7.6 336 10.7
2006-07-03 09:00:30 51°13.984 2°55.516 339 7.6 336 10.9
2006-07-03 09:00:34 51°13.992 2°55.51 339.3 7.6 336 10.8
2006-07-03 09:00:40 51°14.003 2°55.502 339.5 7.5 336 10.8
2006-07-03 09:00:45 51°14.013 2°55.496 339.5 7.6 336 10.8
2006-07-03 09:00:50 51°14.022 2°55.489 339.5 7.5 336 10.7
2006-07-03 09:00:54 51°14.03 2°55.483 339.5 7.5 336 10.7
2006-07-03 09:01:00 51°14.041 2°55.475 339.3 7.6 335 10.7
2006-07-03 09:01:04 51°14.049 2°55.469 339.4 7.7 336 10.7
2006-07-03 09:01:10 51°14.061 2°55.461 339.9 7.8 336 10.7
2006-07-03 09:01:14 51°14.069 2°55.456 340 7.9 337 10.7
2006-07-03 09:01:20 51°14.081 2°55.447 340 7.9 337 10.7
2006-07-03 09:01:25 51°14.091 2°55.44 339.4 8 336 10.7
2006-07-03 09:01:30 51°14.102 2°55.432 339 8.2 336 10.7
2006-07-03 09:01:35 51°14.112 2°55.425 338.9 8.3 336 10.7
2006-07-03 09:01:40 51°14.123 2°55.417 338.9 8.5 335 10.7
2006-07-03 09:01:45 51°14.134 2°55.408 338.9 8.7 335 10.6
2006-07-03 09:01:50 51°14.145 2°55.4 338.2 8.9 334 10.7
2006-07-03 09:01:56 51°14.159 2°55.389 337.4 9.1 333 10.6
2006-07-03 09:02:00 51°14.168 2°55.381 336.4 9.2 332 10.6
2006-07-03 09:02:05 51°14.179 2°55.371 335.3 9.3 331 10.6
2006-07-03 09:02:10 51°14.191 2°55.36 334.1 9.5 330 10.6
2006-07-03 09:02:15 51°14.202 2°55.349 332.9 9.5 329 10.6
2006-07-03 09:02:20 51°14.213 2°55.337 331.2 9.6 326 10.6
2006-07-03 09:02:25 51°14.224 2°55.324 329.1 9.7 324 10.5
2006-07-03 09:02:30 51°14.234 2°55.31 326.7 9.7 322 10.6
2006-07-03 09:02:34 51°14.243 2°55.299 324.8 9.8 321 10.6
2006-07-03 09:02:40 51°14.255 2°55.282 323.2 9.8 319 10.6
2006-07-03 09:02:45 51°14.265 2°55.267 321.5 9.9 317 10.6
2006-07-03 09:02:50 51°14.274 2°55.251 319.4 9.9 315 10.6
2006-07-03 09:02:55 51°14.283 2°55.235 317.3 9.9 313 10.5
2006-07-03 09:03:00 51°14.292 2°55.218 315.1 9.9 311 10.5
2006-07-03 09:03:05 51°14.301 2°55.201 313.1 9.9 308 10.6
2006-07-03 09:03:10 51°14.309 2°55.183 311.1 10.1 307 10.7
2006-07-03 09:03:15 51°14.317 2°55.164 309.4 10.2 305 10.5
2006-07-03 09:03:20 51°14.325 2°55.145 307.9 10.3 304 10.5
2006-07-03 09:03:25 51°14.333 2°55.126 307.4 10.4 304 10.5
2006-07-03 09:03:30 51°14.341 2°55.106 307.6 10.6 304 10.6
2006-07-03 09:03:35 51°14.349 2°55.087 308 10.7 304 10.6
2006-07-03 09:03:40 51°14.358 2°55.067 308.2 10.8 304 10.8
2006-07-03 09:03:45 51°14.367 2°55.047 308.4 10.9 305 10.7
2006-07-03 09:03:50 51°14.375 2°55.027 308.9 11 305 10.6
2006-07-03 09:03:55 51°14.384 2°55.007 309.1 11.2 305 10.5
2006-07-03 09:04:00 51°14.393 2°54.985 308.9 11.5 304 10.6
2006-07-03 09:04:05 51°14.402 2°54.963 308.1 11.7 303 10.9
2006-07-03 09:04:10 51°14.41 2°54.941 307.5 11.9 302 10.8
2006-07-03 09:04:15 51°14.42 2°54.918 308.1 12.1 303 11.5
2006-07-03 09:04:20 51°14.429 2°54.895 309.6 12.4 303 11.1
2006-07-03 09:04:25 51°14.439 2°54.872 310.7 12.5 304 10.9
2006-07-03 09:04:30 51°14.45 2°54.85 312.7 12.6 307 10.8
2006-07-03 09:04:34 51°14.459 2°54.833 315.4 12.7 310 11.1
2006-07-03 09:04:40 51°14.473 2°54.807 317.6 12.7 311 10.8
2006-07-03 09:04:45 51°14.485 2°54.786 318.1 12.8 312 10.8
2006-07-03 09:04:50 51°14.497 2°54.766 319.1 12.8 313 10.3
2006-07-03 09:04:55 51°14.51 2°54.748 321.1 12.7 316 10.1
2006-07-03 09:05:00 51°14.524 2°54.73 325.2 12.6 320 10.1
2006-07-03 09:05:05 51°14.538 2°54.714 328.4 12.6 323 10
2006-07-03 09:05:09 51°14.549 2°54.7 330 12.6 324 9.9
2006-07-03 09:05:14 51°14.564 2°54.686 332.3 12.5 327 9.8
2006-07-03 09:05:19 51°14.579 2°54.672 335.3 12.5 330 9.7
2006-07-03 09:05:25 51°14.598 2°54.658 338.4 12.5 334 9.6
2006-07-03 09:05:30 51°14.614 2°54.647 341.1 12.4 337 9.6
2006-07-03 09:05:34 51°14.627 2°54.64 344.7 12.4 339 9.5
2006-07-03 09:05:40 51°14.646 2°54.63 347.6 12.4 343 9.5
2006-07-03 09:05:45 51°14.663 2°54.624 350.9 12.4 344 9.5
2006-07-03 09:05:50 51°14.68 2°54.619 353.6 12.4 348 9.4
2006-07-03 09:05:55 51°14.697 2°54.614 355.4 12.4 349 9.4
2006-07-03 09:06:00 51°14.714 2°54.609 355.8 12.4 349 9.4
2006-07-03 09:06:05 51°14.73 2°54.604 355.9 12.4 350 9.4
2006-07-03 09:06:10 51°14.748 2°54.6 356.3 12.4 351 9.4
2006-07-03 09:06:15 51°14.764 2°54.596 357.8 12.4 352 9.3
2006-07-03 09:06:20 51°14.782 2°54.593 359.1 12.4 353 9.3
2006-07-03 09:06:25 51°14.799 2°54.591 0.3 12.4 355 9.3
2006-07-03 09:06:30 51°14.816 2°54.588 0.9 12.3 355 9.3
2006-07-03 09:06:34 51°14.829 2°54.586 0.9 12.3 355 9.2
2006-07-03 09:06:40 51°14.85 2°54.583 0.7 12.3 355 9.2
2006-07-03 09:06:45 51°14.867 2°54.58 0.8 12.4 354 9.2
2006-07-03 09:06:50 51°14.884 2°54.578 0.5 12.4 354 9.1
2006-07-03 09:06:55 51°14.901 2°54.575 0.5 12.4 354 9
2006-07-03 09:07:00 51°14.918 2°54.572 0.5 12.3 354 9
2006-07-03 09:07:04 51°14.931 2°54.57 0.4 12.3 354 8.9
2006-07-03 09:07:09 51°14.948 2°54.567 0.4 12.4 354 8.9
2006-07-03 09:07:15 51°14.969 2°54.564 0.4 12.4 354 8.9
2006-07-03 09:07:20 51°14.986 2°54.561 -999 12.3 353 8.8
2006-07-03 09:07:25 51°15.003 2°54.557 359.6 12.3 353 8.7
2006-07-03 09:07:30 51°15.02 2°54.554 359.4 12.3 353 8.6
2006-07-03 09:07:35 51°15.037 2°54.551 359.4 12.3 353 8.5
2006-07-03 09:07:40 51°15.054 2°54.548 359.3 12.3 353 8.5
2006-07-03 09:07:45 51°15.07 2°54.545 359.4 12.3 353 8.4
2006-07-03 09:07:50 51°15.087 2°54.542 359.9 12.3 354 8.4
2006-07-03 09:07:55 51°15.104 2°54.539 0.2 12.3 354 8.4
2006-07-03 09:08:00 51°15.121 2°54.537 0.6 12.3 355 8.4
2006-07-03 09:08:05 51°15.138 2°54.534 0.8 12.3 355 8.4
2006-07-03 09:08:10 51°15.155 2°54.531 0.8 12.3 354 8.5
2006-07-03 09:08:15 51°15.172 2°54.528 0.4 12.3 354 8.6
2006-07-03 09:08:20 51°15.189 2°54.525 0.2 12.3 354 8.6
2006-07-03 09:08:25 51°15.206 2°54.523 0.2 12.4 354 8.7
2006-07-03 09:08:30 51°15.224 2°54.52 0.5 12.4 354 8.7
2006-07-03 09:08:34 51°15.237 2°54.518 0.5 12.4 354 8.7
2006-07-03 09:08:39 51°15.254 2°54.515 0.3 12.4 354 8.8
2006-07-03 09:08:45 51°15.275 2°54.511 0.1 12.4 354 8.8
2006-07-03 09:08:50 51°15.292 2°54.507 359.5 12.4 353 8.8
2006-07-03 09:08:55 51°15.309 2°54.504 359.2 12.4 353 8.8
2006-07-03 09:09:00 51°15.326 2°54.501 359 12.4 353 8.9
2006-07-03 09:09:05 51°15.343 2°54.497 359 12.4 353 9
2006-07-03 09:09:10 51°15.36 2°54.493 358.9 12.4 352 9
2006-07-03 09:09:15 51°15.377 2°54.49 358.6 12.4 352 9
2006-07-03 09:09:20 51°15.394 2°54.486 358.3 12.4 352 9
2006-07-03 09:09:25 51°15.411 2°54.482 358 12.3 351 9.1
2006-07-03 09:09:30 51°15.428 2°54.477 357.7 12.3 351 9.2
2006-07-03 09:09:35 51°15.444 2°54.473 357.6 12.4 351 9.2
2006-07-03 09:09:40 51°15.461 2°54.47 357.8 12.3 352 9.2
2006-07-03 09:09:45 51°15.478 2°54.466 358.3 12.3 352 9.3
2006-07-03 09:09:50 51°15.495 2°54.462 358.7 12.3 353 9.3
2006-07-03 09:09:55 51°15.512 2°54.459 359.2 12.3 353 9.4
2006-07-03 09:10:00 51°15.529 2°54.456 359.4 12.3 353 9.4
2006-07-03 09:10:05 51°15.546 2°54.452 359.4 12.3 353 9.6
2006-07-03 09:10:10 51°15.563 2°54.449 359.5 12.3 353 9.6
2006-07-03 09:10:15 51°15.58 2°54.445 359.3 12.3 352 9.7
2006-07-03 09:10:20 51°15.597 2°54.442 359.1 12.3 352 9.7
2006-07-03 09:10:25 51°15.614 2°54.438 358.9 12.3 352 9.8
2006-07-03 09:10:30 51°15.631 2°54.434 358.8 12.4 352 9.9
2006-07-03 09:10:34 51°15.644 2°54.431 358.8 12.4 352 9.9
2006-07-03 09:10:39 51°15.661 2°54.427 358.8 12.4 352 10
2006-07-03 09:10:45 51°15.682 2°54.423 358.7 12.4 352 10
2006-07-03 09:10:50 51°15.699 2°54.419 358.7 12.4 352 10
2006-07-03 09:10:54 51°15.712 2°54.416 358.7 12.4 352 10.1
2006-07-03 09:11:00 51°15.733 2°54.411 358.7 12.4 352 10.1
2006-07-03 09:11:05 51°15.75 2°54.407 358.5 12.4 352 10.2
2006-07-03 09:11:10 51°15.767 2°54.403 358.4 12.4 352 10.2
2006-07-03 09:11:15 51°15.784 2°54.399 358.4 12.4 352 10.3
2006-07-03 09:11:20 51°15.801 2°54.396 358.4 12.4 352 10.3
2006-07-03 09:11:25 51°15.818 2°54.392 358.2 12.4 352 10.4
2006-07-03 09:11:30 51°15.835 2°54.387 358 12.4 352 10.4
2006-07-03 09:11:34 51°15.849 2°54.384 358 12.4 352 10.4
2006-07-03 09:11:40 51°15.869 2°54.379 358 12.4 351 10.5
2006-07-03 09:11:45 51°15.886 2°54.375 357.8 12.4 351 10.5
2006-07-03 09:11:50 51°15.903 2°54.371 357.7 12.5 351 10.6
2006-07-03 09:11:55 51°15.92 2°54.367 357.7 12.4 351 10.6
2006-07-03 09:12:00 51°15.937 2°54.363 357.7 12.2 351 10.6
2006-07-03 09:12:05 51°15.952 2°54.359 357.4 11.3 351 10.7
2006-07-03 09:12:10 51°15.966 2°54.355 357.3 10.5 351 10.7
2006-07-03 09:12:14 51°15.976 2°54.353 357.4 9.5 351 10.8
2006-07-03 09:12:20 51°15.99 2°54.351 358.3 9 352 10.9
2006-07-03 09:12:25 51°16.001 2°54.348 359.7 8.4 353 11
2006-07-03 09:12:30 51°16.012 2°54.346 1.8 7.6 356 11
2006-07-03 09:12:34 51°16.02 2°54.345 4.5 7 358 11.1
2006-07-03 09:12:40 51°16.03 2°54.346 7.6 6.5 1 11.1
2006-07-03 09:12:45 51°16.038 2°54.347 11.4 6.2 3 11.1
2006-07-03 09:12:50 51°16.046 2°54.348 14.3 5.7 6 11.1
2006-07-03 09:12:55 51°16.053 2°54.35 16.5 5.3 8 11.1
2006-07-03 09:13:00 51°16.06 2°54.352 19 5 10 11.1
2006-07-03 09:13:05 51°16.066 2°54.354 21.3 4.6 13 11.1
2006-07-03 09:13:10 51°16.072 2°54.357 23.5 4.4 14 11.2
2006-07-03 09:13:14 51°16.076 2°54.359 25.4 4.2 16 11.2
2006-07-03 09:13:20 51°16.082 2°54.363 27.2 3.9 17 11.2
2006-07-03 09:13:25 51°16.087 2°54.365 29 3.8 19 11.2
2006-07-03 09:13:30 51°16.091 2°54.368 30.6 3.5 21 11.2
2006-07-03 09:13:34 51°16.095 2°54.37 32.2 3.4 22 11.2
2006-07-03 09:13:40 51°16.1 2°54.374 33.7 3.2 23 11.2
2006-07-03 09:13:45 51°16.103 2°54.377 34.9 3.1 25 11.2
2006-07-03 09:13:50 51°16.107 2°54.38 36.4 2.9 25 11.3
2006-07-03 09:13:55 51°16.11 2°54.382 37.7 2.8 26 11.2
2006-07-03 09:14:00 51°16.114 2°54.385 38.9 2.7 27 11.2
2006-07-03 09:14:05 51°16.117 2°54.388 40 2.6 28 11.2
2006-07-03 09:14:10 51°16.12 2°54.39 41.2 2.5 30 11.2
2006-07-03 09:14:15 51°16.123 2°54.393 42.1 2.4 30 11.2
2006-07-03 09:14:20 51°16.125 2°54.396 43.1 2.3 31 11.2
2006-07-03 09:14:24 51°16.127 2°54.398 44.1 2.2 32 11.2
2006-07-03 09:14:30 51°16.13 2°54.401 45.2 2.1 32 11.3
2006-07-03 09:14:34 51°16.132 2°54.402 45.8 2.1 34 11.2
2006-07-03 09:14:40 51°16.135 2°54.405 46.7 2 33 11.2
2006-07-03 09:14:45 51°16.137 2°54.408 47.5 2 35 11.2
2006-07-03 09:14:50 51°16.139 2°54.41 48.1 1.8 35 11.2
2006-07-03 09:14:54 51°16.141 2°54.412 48.9 1.8 36 11.3
2006-07-03 09:15:00 51°16.143 2°54.415 49.3 1.7 37 11.3
2006-07-03 09:15:03 51°16.144 2°54.416 50 1.7 36 11.2
2006-07-03 09:15:10 51°16.146 2°54.419 50.3 1.6 36 11.2
2006-07-03 09:15:14 51°16.148 2°54.421 50.8 1.6 35 11.3
2006-07-03 09:15:19 51°16.15 2°54.423 51.3 1.5 38 11.3
2006-07-03 09:15:25 51°16.152 2°54.425 51.5 1.5 37 11.3
2006-07-03 09:15:30 51°16.153 2°54.427 51.7 1.4 37 11.3
2006-07-03 09:15:35 51°16.155 2°54.429 52 1.4 38 11.3
2006-07-03 09:15:40 51°16.156 2°54.43 52.2 1.3 37 11.3
2006-07-03 09:15:45 51°16.158 2°54.432 52.2 1.3 37 11.3
2006-07-03 09:15:50 51°16.159 2°54.434 52.2 1.3 36 11.3
2006-07-03 09:15:55 51°16.16 2°54.435 52.2 1.2 38 11.3
2006-07-03 09:16:00 51°16.161 2°54.437 52.4 1.2 37 11.3
2006-07-03 09:16:05 51°16.162 2°54.438 52.5 1.1 37 11.3
2006-07-03 09:16:10 51°16.164 2°54.439 52.5 1.1 37 11.3
2006-07-03 09:16:15 51°16.165 2°54.441 52.7 1.1 36 11.3
2006-07-03 09:16:20 51°16.166 2°54.442 52.8 1 35 11.3
2006-07-03 09:16:25 51°16.167 2°54.443 52.9 1 36 11.3
2006-07-03 09:16:30 51°16.168 2°54.444 52.9 1 35 11.3
2006-07-03 09:16:35 51°16.169 2°54.446 53 1 34 11.2
2006-07-03 09:16:40 51°16.17 2°54.447 53.3 0.9 35 11.3
2006-07-03 09:16:45 51°16.171 2°54.448 53.4 0.9 33 11.3
2006-07-03 09:16:50 51°16.173 2°54.449 53.5 0.9 34 11.3
2006-07-03 09:16:55 51°16.173 2°54.45 53.7 0.8 34 11.3
2006-07-03 09:17:00 51°16.174 2°54.451 53.8 0.8 34 11.3
2006-07-03 09:17:05 51°16.175 2°54.452 54 0.8 33 11.3
2006-07-03 09:17:10 51°16.176 2°54.453 54.2 0.8 32 11.3
2006-07-03 09:17:15 51°16.177 2°54.454 54.4 0.8 30 11.3
2006-07-03 09:17:20 51°16.178 2°54.455 54.4 0.7 35 11.3
2006-07-03 09:17:25 51°16.179 2°54.455 54.6 0.7 28 11.3
2006-07-03 09:17:30 51°16.179 2°54.456 54.8 0.7 29 11.3
2006-07-03 09:17:34 51°16.18 2°54.457 55.1 0.7 27 11.3
2006-07-03 09:17:40 51°16.181 2°54.458 55.2 0.6 30 11.3
2006-07-03 09:17:45 51°16.182 2°54.458 55.4 0.6 28 11.3
2006-07-03 09:17:50 51°16.182 2°54.459 55.8 0.6 28 11.3
2006-07-03 09:17:55 51°16.183 2°54.459 55.9 0.5 31 11.3
2006-07-03 09:18:00 51°16.183 2°54.46 56.3 0.5 32 11.2
2006-07-03 09:18:05 51°16.184 2°54.46 56.5 0.5 26 11.2
2006-07-03 09:18:10 51°16.185 2°54.461 56.9 0.5 30 11.3
2006-07-03 09:18:15 51°16.185 2°54.461 57.3 0.5 28 11.2
2006-07-03 09:18:20 51°16.186 2°54.462 57.7 0.4 30 11.3
2006-07-03 09:18:25 51°16.186 2°54.462 58.1 0.4 26 11.2
2006-07-03 09:18:30 51°16.187 2°54.462 58.5 0.4 26 11.2
2006-07-03 09:18:34 51°16.187 2°54.463 58.8 0.4 28 11.2
2006-07-03 09:18:40 51°16.187 2°54.463 59.1 0.4 25 11.2
2006-07-03 09:18:44 51°16.188 2°54.463 59.4 0.4 20 11.2
2006-07-03 09:18:50 51°16.188 2°54.464 59.8 0.3 29 11.3
2006-07-03 09:18:54 51°16.189 2°54.464 60.2 0.3 24 11.3
2006-07-03 09:18:59 51°16.189 2°54.464 60.6 0.3 31 11.2
2006-07-03 09:19:06 51°16.189 2°54.465 61 0.3 23 11.3
2006-07-03 09:19:10 51°16.19 2°54.465 61.6 0.3 23 11.2
2006-07-03 09:19:14 51°16.19 2°54.465 61.9 0.3 19 11.2
2006-07-03 09:19:20 51°16.19 2°54.465 62.4 0.2 13 11.2
2006-07-03 09:19:25 51°16.191 2°54.465 62.8 0.2 12 11.3
2006-07-03 09:19:30 51°16.191 2°54.465 63.2 0.2 13 11.2
2006-07-03 09:19:35 51°16.191 2°54.465 63.8 0.2 20 11.2
2006-07-03 09:19:40 51°16.191 2°54.465 64.3 0.2 16 11.2
2006-07-03 09:19:43 51°16.191 2°54.466 64.7 0.2 15 11.2
2006-07-03 09:19:50 51°16.192 2°54.465 65.3 0.1 2 11.3
2006-07-03 09:19:54 51°16.192 2°54.465 65.8 0.2 352 11.3
2006-07-03 09:20:00 51°16.192 2°54.465 66.1 0.1 354 11.3
2006-07-03 09:20:05 51°16.192 2°54.465 66.8 0.2 356 11.3
2006-07-03 09:20:10 51°16.192 2°54.465 67.2 0.1 352 11.2
2006-07-03 09:20:14 51°16.192 2°54.465 67.7 0.1 347 11.2
2006-07-03 09:20:20 51°16.192 2°54.465 68.3 -999 329 11.2
2006-07-03 09:20:25 51°16.192 2°54.465 68.8 0.1 330 11.2
2006-07-03 09:20:30 51°16.192 2°54.465 69.2 0.1 328 11.2
2006-07-03 09:20:35 51°16.192 2°54.465 69.6 0.1 326 11.2
2006-07-03 09:20:40 51°16.193 2°54.465 70.1 0.1 315 11.2
2006-07-03 09:20:45 51°16.193 2°54.465 70.5 0.1 297 11.3
2006-07-03 09:20:50 51°16.193 2°54.464 71 0.1 289 11.2
2006-07-03 09:20:55 51°16.193 2°54.464 71.6 0.1 289 11.2
2006-07-03 09:21:00 51°16.193 2°54.464 72.1 0.1 265 11.2
2006-07-03 09:21:05 51°16.193 2°54.464 72.5 0.1 275 11.3
2006-07-03 09:21:10 51°16.192 2°54.463 73.2 0.1 262 11.2
2006-07-03 09:21:15 51°16.192 2°54.463 73.7 0.1 274 11.3
2006-07-03 09:21:20 51°16.192 2°54.463 74.3 0.2 261 11.2
2006-07-03 09:21:24 51°16.192 2°54.462 74.9 0.2 255 11.2
2006-07-03 09:21:30 51°16.192 2°54.462 75.5 0.2 251 11.3
2006-07-03 09:21:34 51°16.192 2°54.462 76.2 0.2 249 11.3
2006-07-03 09:21:40 51°16.192 2°54.461 76.9 0.2 248 11.3
2006-07-03 09:21:45 51°16.192 2°54.461 77.5 0.2 245 11.3
2006-07-03 09:21:50 51°16.192 2°54.46 78.2 0.2 254 11.2
2006-07-03 09:21:55 51°16.192 2°54.46 79 0.2 245 11.3
2006-07-03 09:22:00 51°16.191 2°54.46 79.5 0.1 237 11.2
2006-07-03 09:22:05 51°16.191 2°54.46 79.8 0.1 169 11.2
2006-07-03 09:22:10 51°16.191 2°54.46 79.8 0.1 100 11.3
2006-07-03 09:22:15 51°16.191 2°54.461 79.8 0.2 93 11.2
2006-07-03 09:22:20 51°16.191 2°54.462 79.4 0.4 76 11.2
2006-07-03 09:22:25 51°16.192 2°54.463 78.3 0.5 80 11.3
2006-07-03 09:22:30 51°16.192 2°54.465 76.3 0.7 69 11.2
2006-07-03 09:22:34 51°16.192 2°54.466 73.7 0.9 66 11.2
2006-07-03 09:22:41 51°16.193 2°54.469 71.1 0.9 64 11.2
2006-07-03 09:22:45 51°16.194 2°54.471 66.8 1.1 58 11.2
2006-07-03 09:22:50 51°16.195 2°54.473 63.1 1.2 53 11.2
2006-07-03 09:22:54 51°16.196 2°54.474 59.1 1.3 48 11.2
2006-07-03 09:23:00 51°16.198 2°54.477 55.2 1.4 40 11.2
2006-07-03 09:23:05 51°16.2 2°54.479 51 1.5 39 11.3
2006-07-03 09:23:10 51°16.202 2°54.481 46.4 1.7 32 11.3
2006-07-03 09:23:15 51°16.204 2°54.483 42.8 1.9 29 11.2
2006-07-03 09:23:20 51°16.207 2°54.485 37.3 2 23 11.2
2006-07-03 09:23:25 51°16.209 2°54.486 32.6 2.1 18 11.2
2006-07-03 09:23:30 51°16.212 2°54.486 27.7 2.2 12 11.2
2006-07-03 09:23:35 51°16.216 2°54.487 22.7 2.3 9 11.2
2006-07-03 09:23:40 51°16.219 2°54.487 17.8 2.4 2 11.3
2006-07-03 09:23:45 51°16.223 2°54.486 13 2.5 357 11.3
2006-07-03 09:23:50 51°16.226 2°54.485 8 2.6 353 11.2
2006-07-03 09:23:55 51°16.23 2°54.484 3 2.7 349 11.2
2006-07-03 09:24:00 51°16.234 2°54.482 358 2.8 344 11.2
2006-07-03 09:24:05 51°16.238 2°54.479 353.2 2.9 339 11.2
2006-07-03 09:24:10 51°16.241 2°54.476 348.2 3 333 11.3
2006-07-03 09:24:15 51°16.245 2°54.472 344.1 3.1 331 11.3
2006-07-03 09:24:20 51°16.249 2°54.468 338.6 3.3 325 11.3
2006-07-03 09:24:25 51°16.253 2°54.464 335.8 3.4 326 11.3
2006-07-03 09:24:30 51°16.257 2°54.459 334.3 3.5 323 11.3
2006-07-03 09:24:34 51°16.26 2°54.455 332.8 3.6 323 11.2
2006-07-03 09:24:40 51°16.265 2°54.449 332.2 3.8 322 11.2
2006-07-03 09:24:45 51°16.269 2°54.443 331.6 3.8 322 11.2
2006-07-03 09:24:50 51°16.273 2°54.438 331.6 4 321 11.3
2006-07-03 09:24:55 51°16.278 2°54.432 331.6 4 321 11.2
2006-07-03 09:25:00 51°16.282 2°54.426 331.6 4.1 322 11.2
2006-07-03 09:25:05 51°16.287 2°54.42 332 4.2 322 11.2
2006-07-03 09:25:10 51°16.291 2°54.414 332.2 4.3 322 11.2
2006-07-03 09:25:15 51°16.296 2°54.408 332.2 4.3 321 11.2
2006-07-03 09:25:20 51°16.301 2°54.402 331.8 4.4 321 11.2
2006-07-03 09:25:25 51°16.306 2°54.396 331 4.5 321 11.2
2006-07-03 09:25:30 51°16.31 2°54.39 330.3 4.5 321 11.2
2006-07-03 09:25:34 51°16.314 2°54.384 329.5 4.5 320 11.2
2006-07-03 09:25:40 51°16.32 2°54.376 328.6 4.6 319 11.2
2006-07-03 09:25:44 51°16.324 2°54.371 327.6 4.7 318 11.1
2006-07-03 09:25:50 51°16.33 2°54.362 326.6 4.7 318 11.1
2006-07-03 09:25:55 51°16.334 2°54.355 325.8 4.8 317 11.1
2006-07-03 09:26:00 51°16.339 2°54.347 324.8 4.8 316 11.2
2006-07-03 09:26:05 51°16.344 2°54.34 323.6 4.8 315 11.2
2006-07-03 09:26:10 51°16.349 2°54.332 322.8 4.8 314 11.2
2006-07-03 09:26:15 51°16.353 2°54.324 321.8 4.9 313 11.2
2006-07-03 09:26:20 51°16.358 2°54.316 320.8 4.9 312 11.2
2006-07-03 09:26:25 51°16.362 2°54.307 319.4 4.9 311 11.2
2006-07-03 09:26:30 51°16.367 2°54.298 318.4 5 310 11.2
2006-07-03 09:26:35 51°16.371 2°54.29 317.2 5 310 11.3
2006-07-03 09:26:40 51°16.376 2°54.281 316.4 5 308 11.2
2006-07-03 09:26:45 51°16.38 2°54.272 315.3 5.1 307 11.2
2006-07-03 09:26:50 51°16.384 2°54.262 314.1 5.2 306 11.2
2006-07-03 09:26:54 51°16.387 2°54.255 312.9 5.4 305 11.3
2006-07-03 09:27:00 51°16.392 2°54.243 311.9 5.6 304 11.3
2006-07-03 09:27:04 51°16.396 2°54.234 310.7 5.7 303 11.3
2006-07-03 09:27:10 51°16.401 2°54.221 309.4 5.9 302 11.3
2006-07-03 09:27:15 51°16.405 2°54.21 308 6 301 11.2
2006-07-03 09:27:20 51°16.409 2°54.198 306.9 6.1 300 11.3
2006-07-03 09:27:24 51°16.412 2°54.189 305.3 6.2 299 11.3
2006-07-03 09:27:30 51°16.417 2°54.174 304.3 6.3 298 11.3
2006-07-03 09:27:35 51°16.421 2°54.161 302.7 6.4 296 11.3
2006-07-03 09:27:40 51°16.425 2°54.148 301.7 6.5 295 11.3
2006-07-03 09:27:45 51°16.428 2°54.135 300.1 6.5 294 11.3
2006-07-03 09:27:50 51°16.432 2°54.121 299.1 6.6 293 11.3
2006-07-03 09:27:55 51°16.435 2°54.108 298.2 6.7 292 11.3
2006-07-03 09:28:00 51°16.439 2°54.094 298.1 6.7 293 11.3
2006-07-03 09:28:05 51°16.443 2°54.08 298.2 6.7 292 11.4
2006-07-03 09:28:10 51°16.446 2°54.067 298.9 6.6 293 11.3
2006-07-03 09:28:14 51°16.449 2°54.057 299.4 6.5 293 11.4
2006-07-03 09:28:20 51°16.453 2°54.042 299.7 6.3 294 11.4
2006-07-03 09:28:25 51°16.457 2°54.029 299.9 6.2 293 11.4
2006-07-03 09:28:30 51°16.46 2°54.017 299.9 6.1 293 11.4
2006-07-03 09:28:35 51°16.463 2°54.004 299.7 6 293 11.4
2006-07-03 09:28:40 51°16.467 2°53.992 299.4 5.9 292 11.4
2006-07-03 09:28:45 51°16.469 2°53.981 299 5.7 291 11.4
2006-07-03 09:28:50 51°16.472 2°53.97 298.7 5.4 291 11.5
2006-07-03 09:28:54 51°16.474 2°53.961 298.2 5.1 290 11.4
2006-07-03 09:29:00 51°16.476 2°53.949 297.3 5 289 11.4
2006-07-03 09:29:05 51°16.479 2°53.939 296.4 4.8 288 11.4
2006-07-03 09:29:10 51°16.48 2°53.929 295.4 4.6 288 11.5
2006-07-03 09:29:15 51°16.482 2°53.921 294.2 4.3 286 11.5
2006-07-03 09:29:20 51°16.483 2°53.913 293.2 3.7 284 11.4
2006-07-03 09:29:25 51°16.484 2°53.907 293.2 3.2 282 11.5
2006-07-03 09:29:30 51°16.484 2°53.903 294.6 2.4 278 11.5
2006-07-03 09:29:35 51°16.484 2°53.899 295.7 1.9 275 11.5
2006-07-03 09:29:40 51°16.484 2°53.897 294.9 1.2 264 11.5
2006-07-03 09:29:45 51°16.483 2°53.896 292.3 0.9 244 11.5
2006-07-03 09:29:50 51°16.483 2°53.895 290.9 0.7 247 11.5
2006-07-03 09:29:55 51°16.483 2°53.893 288.8 0.7 245 11.5
2006-07-03 09:30:00 51°16.482 2°53.892 287.6 0.7 250 11.5
2006-07-03 09:30:05 51°16.482 2°53.89 286.6 0.8 244 11.5
2006-07-03 09:30:10 51°16.482 2°53.889 285.8 0.7 248 11.5
2006-07-03 09:30:14 51°16.481 2°53.887 285 0.7 246 11.5
2006-07-03 09:30:21 51°16.481 2°53.885 284.2 0.7 250 11.6
2006-07-03 09:30:24 51°16.481 2°53.884 283.2 0.7 247 11.6
2006-07-03 09:30:30 51°16.48 2°53.882 282.7 0.8 246 11.5
2006-07-03 09:30:35 51°16.48 2°53.88 281.8 0.8 245 11.5
2006-07-03 09:30:40 51°16.479 2°53.879 280.9 0.8 247 11.5
2006-07-03 09:30:45 51°16.479 2°53.877 280.3 0.8 247 11.6
2006-07-03 09:30:50 51°16.478 2°53.876 279.5 0.8 247 4.6
2006-07-03 09:30:55 51°16.478 2°53.874 279 0.8 250 5.3
2006-07-03 09:31:00 51°16.477 2°53.872 278.5 0.9 244 -999
2006-07-03 09:31:05 51°16.477 2°53.871 277.9 0.8 248 11.6
2006-07-03 09:31:10 51°16.476 2°53.869 277.4 0.8 246 5.3
2006-07-03 09:31:15 51°16.476 2°53.867 277 0.8 250 5.3
2006-07-03 09:31:20 51°16.475 2°53.865 276.7 0.8 246 11.6
2006-07-03 09:31:25 51°16.475 2°53.864 276.1 0.9 248 11.5
2006-07-03 09:31:30 51°16.474 2°53.862 275.8 0.9 246 11.6
2006-07-03 09:31:35 51°16.474 2°53.86 275.5 0.9 248 11.5
2006-07-03 09:31:40 51°16.474 2°53.858 275 0.8 249 11.5
2006-07-03 09:31:45 51°16.473 2°53.856 274.8 0.9 247 11.5
2006-07-03 09:31:50 51°16.473 2°53.855 274.3 0.9 246 11.5
2006-07-03 09:31:54 51°16.472 2°53.853 274 0.9 247 11.5
2006-07-03 09:32:00 51°16.472 2°53.851 273.6 0.9 247 11.5
2006-07-03 09:32:05 51°16.471 2°53.849 273.3 0.9 247 11.5
2006-07-03 09:32:10 51°16.471 2°53.847 273 0.9 246 11.5
2006-07-03 09:32:15 51°16.47 2°53.845 272.7 0.9 247 11.6
2006-07-03 09:32:20 51°16.47 2°53.844 272.4 0.9 245 11.5
2006-07-03 09:32:25 51°16.469 2°53.841 272.1 0.9 246 11.5
2006-07-03 09:32:30 51°16.468 2°53.84 271.8 0.9 246 11.5
2006-07-03 09:32:35 51°16.468 2°53.838 271.4 0.9 247 11.5
2006-07-03 09:32:40 51°16.467 2°53.836 271.1 0.9 246 11.5
2006-07-03 09:32:45 51°16.467 2°53.834 270.9 0.9 245 11.5
2006-07-03 09:32:50 51°16.466 2°53.832 270.6 1 246 11.5
2006-07-03 09:32:54 51°16.466 2°53.831 270.4 1 245 11.5
2006-07-03 09:33:00 51°16.465 2°53.828 270.1 0.9 247 11.6
2006-07-03 09:33:05 51°16.464 2°53.826 270 1 246 11.5
2006-07-03 09:33:10 51°16.464 2°53.824 269.8 1 245 11.5
2006-07-03 09:33:15 51°16.463 2°53.822 269.7 1 244 11.5
2006-07-03 09:33:20 51°16.463 2°53.82 269.6 1 245 11.5
2006-07-03 09:33:26 51°16.462 2°53.818 269.6 1 243 11.5
2006-07-03 09:33:30 51°16.461 2°53.816 269.6 1 247 11.5
2006-07-03 09:33:35 51°16.461 2°53.814 269.5 1 245 11.5
2006-07-03 09:33:40 51°16.46 2°53.812 269.5 1 246 11.5
2006-07-03 09:33:44 51°16.46 2°53.811 269.6 1 244 11.5
2006-07-03 09:33:50 51°16.459 2°53.808 269.7 1 246 11.5
2006-07-03 09:33:55 51°16.458 2°53.806 269.8 1 244 11.5
2006-07-03 09:34:00 51°16.458 2°53.804 269.9 1 245 11.6
2006-07-03 09:34:05 51°16.457 2°53.802 270 1 245 11.5
2006-07-03 09:34:10 51°16.457 2°53.8 270.3 1 248 11.5
2006-07-03 09:34:15 51°16.456 2°53.798 270.6 1 245 11.5
2006-07-03 09:34:20 51°16.455 2°53.796 270.7 1 247 11.5
2006-07-03 09:34:25 51°16.455 2°53.794 271 1 249 11.5
2006-07-03 09:34:30 51°16.454 2°53.792 271.3 1.1 245 11.5
2006-07-03 09:34:35 51°16.454 2°53.79 271.6 1 246 11.5
2006-07-03 09:34:40 51°16.453 2°53.787 271.8 1 247 11.5
2006-07-03 09:34:45 51°16.452 2°53.785 272.1 1 247 11.5
2006-07-03 09:34:50 51°16.452 2°53.783 272.2 1.1 245 11.5
2006-07-03 09:34:55 51°16.451 2°53.781 272.5 1.1 247 11.5
2006-07-03 09:35:00 51°16.451 2°53.779 272.9 1.1 248 11.5
2006-07-03 09:35:05 51°16.45 2°53.777 273.3 1.1 248 11.5
2006-07-03 09:35:10 51°16.45 2°53.774 273.6 1.1 246 11.5
2006-07-03 09:35:14 51°16.449 2°53.773 274 1.1 246 11.5
2006-07-03 09:35:20 51°16.448 2°53.77 274.4 1.1 246 11.5
2006-07-03 09:35:25 51°16.448 2°53.768 274.9 1.1 247 11.5
2006-07-03 09:35:30 51°16.447 2°53.765 275.4 1.1 248 11.5
2006-07-03 09:35:35 51°16.447 2°53.763 275.9 1.1 246 11.5
2006-07-03 09:35:40 51°16.446 2°53.761 276.5 1.1 246 11.5
2006-07-03 09:35:45 51°16.445 2°53.759 277.1 1.1 245 11.5
2006-07-03 09:35:50 51°16.445 2°53.757 277.7 1.1 247 11.5
2006-07-03 09:35:55 51°16.444 2°53.754 278.2 1.1 246 11.5
2006-07-03 09:36:00 51°16.444 2°53.752 278.7 1.1 249 11.5
2006-07-03 09:36:05 51°16.443 2°53.75 279.3 1.1 245 11.5
2006-07-03 09:36:10 51°16.443 2°53.748 279.7 1.1 248 11.5
2006-07-03 09:36:15 51°16.442 2°53.745 280.2 1.1 248 11.5
2006-07-03 09:36:20 51°16.441 2°53.743 280.8 1.1 249 11.5
2006-07-03 09:36:25 51°16.441 2°53.741 281.4 1.1 248 11.5
2006-07-03 09:36:30 51°16.44 2°53.739 282 1.1 248 11.5
2006-07-03 09:36:34 51°16.44 2°53.737 282.5 1.1 247 11.5
2006-07-03 09:36:39 51°16.439 2°53.735 283.2 1.1 246 11.5
2006-07-03 09:36:44 51°16.439 2°53.732 283.7 1.1 249 11.5
2006-07-03 09:36:49 51°16.438 2°53.73 284.4 1.1 247 11.5
2006-07-03 09:36:55 51°16.437 2°53.727 285.2 1.1 250 11.5
2006-07-03 09:37:00 51°16.437 2°53.725 285.7 1.1 245 11.5
2006-07-03 09:37:05 51°16.436 2°53.723 286.3 1.1 250 11.5
2006-07-03 09:37:10 51°16.435 2°53.721 286.9 1.1 248 11.5
2006-07-03 09:37:15 51°16.435 2°53.718 287.5 1.1 248 11.5
2006-07-03 09:37:20 51°16.434 2°53.716 288.1 1.1 248 11.5
2006-07-03 09:37:25 51°16.434 2°53.714 288.8 1.1 248 11.5
2006-07-03 09:37:30 51°16.433 2°53.712 289.4 1.1 247 11.5
2006-07-03 09:37:34 51°16.433 2°53.71 290.1 1.2 246 11.5
2006-07-03 09:37:40 51°16.432 2°53.707 290.6 1.1 249 11.5
2006-07-03 09:37:45 51°16.432 2°53.705 291.2 1.1 247 11.5
2006-07-03 09:37:50 51°16.431 2°53.703 291.7 1.1 251 11.5
2006-07-03 09:37:55 51°16.431 2°53.7 292.3 1.1 249 11.5
2006-07-03 09:38:00 51°16.43 2°53.698 292.9 1.1 247 11.5
2006-07-03 09:38:05 51°16.43 2°53.696 293.3 1.1 248 11.5
2006-07-03 09:38:10 51°16.429 2°53.694 293.9 1.1 249 11.6
2006-07-03 09:38:15 51°16.428 2°53.691 294.3 1.1 249 11.5
2006-07-03 09:38:20 51°16.428 2°53.689 294.9 1.1 249 11.5
2006-07-03 09:38:25 51°16.427 2°53.687 295.4 1.1 249 11.6
2006-07-03 09:38:30 51°16.427 2°53.685 295.9 1.1 250 11.5
2006-07-03 09:38:35 51°16.426 2°53.682 296.4 1.1 248 11.5
2006-07-03 09:38:41 51°16.426 2°53.68 297 1.1 251 11.5
2006-07-03 09:38:45 51°16.425 2°53.678 297.5 1.1 249 11.5
2006-07-03 09:38:50 51°16.425 2°53.676 298 1.1 250 11.5
2006-07-03 09:38:55 51°16.425 2°53.673 298.6 1.1 249 11.5
2006-07-03 09:39:00 51°16.424 2°53.671 299 1 250 11.5
2006-07-03 09:39:05 51°16.423 2°53.669 299.5 1 250 11.5
2006-07-03 09:39:10 51°16.423 2°53.667 300 1 251 11.5
2006-07-03 09:39:15 51°16.422 2°53.665 300.3 1.1 247 11.5
2006-07-03 09:39:20 51°16.422 2°53.663 300.8 1.1 249 11.5
2006-07-03 09:39:25 51°16.421 2°53.661 301.2 1.1 247 11.5
2006-07-03 09:39:30 51°16.421 2°53.658 301.6 1 251 11.5
2006-07-03 09:39:35 51°16.42 2°53.656 302 1 249 11.5
2006-07-03 09:39:40 51°16.42 2°53.654 302.6 1 249 11.6
2006-07-03 09:39:45 51°16.419 2°53.652 303.1 1.1 249 11.5
2006-07-03 09:39:50 51°16.419 2°53.65 303.5 1.1 250 11.5
2006-07-03 09:39:55 51°16.418 2°53.648 304 1.1 250 11.6
2006-07-03 09:40:00 51°16.418 2°53.645 304.5 1 250 11.5
2006-07-03 09:40:05 51°16.417 2°53.643 305.1 1 250 11.5
2006-07-03 09:40:10 51°16.417 2°53.641 305.5 1 251 11.5
2006-07-03 09:40:14 51°16.416 2°53.639 306.1 1 250 11.6
2006-07-03 09:40:20 51°16.416 2°53.637 306.5 1 250 11.6
2006-07-03 09:40:25 51°16.416 2°53.634 307 1 250 11.6
2006-07-03 09:40:30 51°16.415 2°53.632 307.4 1 252 11.5
2006-07-03 09:40:34 51°16.415 2°53.631 307.8 1 251 11.5
2006-07-03 09:40:40 51°16.414 2°53.628 308.1 1 250 11.5
2006-07-03 09:40:45 51°16.414 2°53.626 308.5 1.1 249 11.5
2006-07-03 09:40:50 51°16.413 2°53.624 308.9 1.1 249 11.5
2006-07-03 09:40:54 51°16.413 2°53.622 309.3 1 249 11.5
2006-07-03 09:41:00 51°16.412 2°53.619 309.7 1 250 11.6
2006-07-03 09:41:05 51°16.412 2°53.617 310 1.1 250 11.6
2006-07-03 09:41:10 51°16.411 2°53.615 310.4 1 250 11.6
2006-07-03 09:41:15 51°16.41 2°53.613 310.6 1.1 249 11.6
2006-07-03 09:41:20 51°16.41 2°53.611 311 1 251 11.5
2006-07-03 09:41:24 51°16.41 2°53.609 311.4 1.1 248 11.5
2006-07-03 09:41:30 51°16.409 2°53.606 311.7 1 251 11.5
2006-07-03 09:41:35 51°16.408 2°53.604 312.1 1.1 250 11.5
2006-07-03 09:41:40 51°16.408 2°53.602 312.6 1 251 11.5
2006-07-03 09:41:45 51°16.407 2°53.6 312.9 1.1 250 11.5
2006-07-03 09:41:50 51°16.407 2°53.598 313.3 1 250 11.5
2006-07-03 09:41:55 51°16.406 2°53.595 313.7 1.1 248 11.5
2006-07-03 09:42:00 51°16.406 2°53.593 314.1 1 250 11.5
2006-07-03 09:42:05 51°16.405 2°53.591 314.4 1.1 250 11.5
2006-07-03 09:42:10 51°16.405 2°53.589 314.8 1 250 11.5
2006-07-03 09:42:14 51°16.404 2°53.587 315.2 1.1 251 11.6
2006-07-03 09:42:20 51°16.404 2°53.585 315.6 1 250 11.5
2006-07-03 09:42:25 51°16.403 2°53.583 316 1.1 250 11.5
2006-07-03 09:42:30 51°16.403 2°53.581 316.4 1 250 11.5
2006-07-03 09:42:35 51°16.403 2°53.579 316.8 1.1 251 11.5
2006-07-03 09:42:40 51°16.402 2°53.577 317 1 251 11.5
2006-07-03 09:42:44 51°16.402 2°53.575 317.4 1 250 11.5
2006-07-03 09:42:50 51°16.401 2°53.573 317.8 1 250 11.6
2006-07-03 09:42:54 51°16.401 2°53.571 318.1 1 251 11.6
2006-07-03 09:42:59 51°16.401 2°53.569 318.5 1.1 250 11.6
2006-07-03 09:43:05 51°16.4 2°53.566 318.8 1 252 11.6
2006-07-03 09:43:10 51°16.399 2°53.564 319.2 1 249 11.6
2006-07-03 09:43:14 51°16.399 2°53.562 319.5 1.1 250 11.6
2006-07-03 09:43:20 51°16.398 2°53.559 319.7 1.1 250 11.6
2006-07-03 09:43:25 51°16.398 2°53.557 320.1 1 250 11.6
2006-07-03 09:43:30 51°16.397 2°53.555 320.4 1.1 249 11.6
2006-07-03 09:43:35 51°16.397 2°53.553 320.8 1.1 251 11.5
2006-07-03 09:43:40 51°16.396 2°53.55 321 1.1 251 11.5
2006-07-03 09:43:45 51°16.396 2°53.549 321.3 1.1 249 11.5
2006-07-03 09:43:50 51°16.395 2°53.547 321.5 1.1 250 11.5
2006-07-03 09:43:55 51°16.395 2°53.544 321.7 1.1 248 11.6
2006-07-03 09:44:00 51°16.394 2°53.542 322.1 1.1 250 11.5
2006-07-03 09:44:05 51°16.394 2°53.54 322.2 1 250 11.5
2006-07-03 09:44:10 51°16.393 2°53.538 322.4 1.1 251 11.5
2006-07-03 09:44:14 51°16.393 2°53.537 322.7 1 250 11.5
2006-07-03 09:44:20 51°16.393 2°53.534 322.8 1.1 249 11.5
2006-07-03 09:44:24 51°16.392 2°53.532 323.1 1.1 250 11.5
2006-07-03 09:44:30 51°16.392 2°53.529 323.3 1.1 249 11.6
2006-07-03 09:44:35 51°16.391 2°53.527 323.6 1.1 249 11.5
2006-07-03 09:44:40 51°16.391 2°53.525 323.7 1.1 248 11.5
2006-07-03 09:44:45 51°16.39 2°53.523 323.9 1.1 250 11.5
2006-07-03 09:44:50 51°16.389 2°53.52 324.2 1.1 251 11.5
2006-07-03 09:44:55 51°16.389 2°53.518 324.5 1 251 11.5
2006-07-03 09:45:00 51°16.388 2°53.516 324.7 1.1 249 11.6
2006-07-03 09:45:05 51°16.388 2°53.514 324.9 1.1 250 11.5
2006-07-03 09:45:10 51°16.387 2°53.511 325.2 1.1 250 11.6
2006-07-03 09:45:15 51°16.387 2°53.509 325.6 1 251 11.6
2006-07-03 09:45:20 51°16.386 2°53.507 325.8 1.1 250 11.6
2006-07-03 09:45:25 51°16.386 2°53.505 325.9 1 250 11.6
2006-07-03 09:45:30 51°16.385 2°53.502 326.2 1.1 249 11.5
2006-07-03 09:45:36 51°16.384 2°53.499 326.3 1 252 11.5
2006-07-03 09:45:40 51°16.384 2°53.498 326.5 1.1 251 11.5
2006-07-03 09:45:45 51°16.384 2°53.495 326.6 1.1 249 11.5
2006-07-03 09:45:50 51°16.383 2°53.493 326.8 1.1 250 11.5
2006-07-03 09:45:54 51°16.383 2°53.491 326.9 1.1 251 11.5
2006-07-03 09:46:00 51°16.382 2°53.488 327.1 1.1 250 11.5
2006-07-03 09:46:05 51°16.382 2°53.486 327.3 1.1 249 11.5
2006-07-03 09:46:10 51°16.381 2°53.484 327.5 1.1 250 11.6
2006-07-03 09:46:15 51°16.381 2°53.482 327.7 1.1 250 11.6
2006-07-03 09:46:20 51°16.38 2°53.48 327.9 1.1 251 11.6
2006-07-03 09:46:23 51°16.38 2°53.479 328 1.1 250 11.6
2006-07-03 09:46:30 51°16.379 2°53.476 328.2 1.1 250 11.6
2006-07-03 09:46:35 51°16.378 2°53.474 328.5 1.1 251 11.6
2006-07-03 09:46:40 51°16.378 2°53.472 328.7 1.1 250 11.6
2006-07-03 09:46:45 51°16.377 2°53.47 328.9 1.1 252 11.6
2006-07-03 09:46:50 51°16.376 2°53.467 329.1 1.1 251 11.5
2006-07-03 09:46:54 51°16.376 2°53.466 329.4 1.1 250 11.6
2006-07-03 09:46:59 51°16.375 2°53.463 329.5 1.1 251 11.5
2006-07-03 09:47:04 51°16.375 2°53.461 329.6 1.1 249 11.5
2006-07-03 09:47:10 51°16.374 2°53.458 329.6 1.1 252 11.6
2006-07-03 09:47:15 51°16.374 2°53.456 329.7 1.1 251 11.6
2006-07-03 09:47:20 51°16.373 2°53.454 329.9 1.1 251 11.6
2006-07-03 09:47:25 51°16.373 2°53.451 329.9 1.1 250 11.6
2006-07-03 09:47:30 51°16.372 2°53.449 330 1.1 251 11.6
2006-07-03 09:47:34 51°16.372 2°53.447 330.1 1.1 251 11.6
2006-07-03 09:47:40 51°16.371 2°53.445 330.2 1.1 251 11.6
2006-07-03 09:47:45 51°16.371 2°53.442 330.2 1.1 248 11.6
2006-07-03 09:47:50 51°16.37 2°53.44 330.2 1.1 250 11.6
2006-07-03 09:47:54 51°16.37 2°53.438 330.2 1.1 250 11.6
2006-07-03 09:48:00 51°16.369 2°53.435 330.3 1.1 252 11.6
2006-07-03 09:48:05 51°16.369 2°53.433 330.4 1.1 251 11.6
2006-07-03 09:48:10 51°16.368 2°53.431 330.3 1.1 250 11.6
2006-07-03 09:48:15 51°16.368 2°53.428 330.3 1.1 248 11.5
2006-07-03 09:48:20 51°16.368 2°53.426 330.3 1.1 251 11.5
2006-07-03 09:48:25 51°16.368 2°53.423 330.3 1 250 11.5
2006-07-03 09:48:30 51°16.367 2°53.42 330.4 1 252 11.5
2006-07-03 09:48:35 51°16.367 2°53.418 330.5 1 251 11.6
2006-07-03 09:48:40 51°16.366 2°53.416 330.6 1 253 11.5
2006-07-03 09:48:45 51°16.366 2°53.414 330.7 1 252 11.5
2006-07-03 09:48:50 51°16.365 2°53.412 330.9 1 254 11.5
2006-07-03 09:48:54 51°16.365 2°53.41 331.3 1.1 250 11.6
2006-07-03 09:49:00 51°16.364 2°53.408 331.5 1 252 11.6
2006-07-03 09:49:05 51°16.364 2°53.405 331.6 1.1 249 11.6
2006-07-03 09:49:10 51°16.363 2°53.403 331.8 1.1 251 11.6
2006-07-03 09:49:15 51°16.363 2°53.401 332 1.1 250 11.6
2006-07-03 09:49:20 51°16.362 2°53.399 332.2 1.1 250 11.6
2006-07-03 09:49:25 51°16.362 2°53.397 332.4 1.1 247 11.6
2006-07-03 09:49:30 51°16.361 2°53.395 332.4 1.1 250 11.6
2006-07-03 09:49:35 51°16.361 2°53.392 332.6 1.1 251 11.6
2006-07-03 09:49:40 51°16.36 2°53.391 332.8 1.1 251 11.6
2006-07-03 09:49:44 51°16.359 2°53.389 332.9 1.1 250 11.6
2006-07-03 09:49:50 51°16.358 2°53.386 333.1 1.1 250 11.6
2006-07-03 09:49:55 51°16.358 2°53.384 333.1 1.1 250 11.6
2006-07-03 09:50:00 51°16.357 2°53.382 333.1 1.1 250 11.6
2006-07-03 09:50:05 51°16.357 2°53.379 333.1 1.1 252 11.6
2006-07-03 09:50:10 51°16.356 2°53.377 333.1 1.2 249 11.6
2006-07-03 09:50:15 51°16.356 2°53.375 333.1 1.1 251 11.6
2006-07-03 09:50:20 51°16.355 2°53.372 333.1 1.2 250 11.6
2006-07-03 09:50:25 51°16.355 2°53.37 333.1 1.1 250 11.5
2006-07-03 09:50:30 51°16.355 2°53.367 333.1 1.2 249 11.6
2006-07-03 09:50:34 51°16.354 2°53.365 333.1 1.1 251 11.6
2006-07-03 09:50:41 51°16.353 2°53.361 333 1.2 250 11.6
2006-07-03 09:50:45 51°16.353 2°53.36 333 1.2 249 11.6
2006-07-03 09:50:50 51°16.353 2°53.357 332.9 1.2 248 11.6
2006-07-03 09:50:54 51°16.352 2°53.355 332.9 1.1 250 11.6
2006-07-03 09:51:00 51°16.351 2°53.352 332.7 1.2 250 11.6
2006-07-03 09:51:05 51°16.351 2°53.35 332.6 1.1 249 11.6
2006-07-03 09:51:10 51°16.35 2°53.347 332.6 1.2 252 11.6
2006-07-03 09:51:15 51°16.35 2°53.345 332.5 1.1 251 11.6
2006-07-03 09:51:20 51°16.35 2°53.343 332.5 1.2 249 11.6
2006-07-03 09:51:24 51°16.349 2°53.341 332.5 1.2 249 11.6
2006-07-03 09:51:29 51°16.349 2°53.338 332.5 1.2 249 11.6
2006-07-03 09:51:35 51°16.348 2°53.335 332.5 1.2 251 11.6
2006-07-03 09:51:40 51°16.347 2°53.333 332.5 1.1 252 11.6
2006-07-03 09:51:45 51°16.347 2°53.331 332.5 1.1 250 11.6
2006-07-03 09:51:50 51°16.347 2°53.329 332.4 1.2 250 11.6
2006-07-03 09:51:55 51°16.346 2°53.327 332.4 1.1 251 11.6
2006-07-03 09:52:00 51°16.346 2°53.324 332.4 1.2 250 11.6
2006-07-03 09:52:05 51°16.345 2°53.322 332.4 1.1 250 11.6
2006-07-03 09:52:10 51°16.344 2°53.319 332.4 1.2 251 11.5
2006-07-03 09:52:14 51°16.344 2°53.318 332.4 1.1 251 11.5
2006-07-03 09:52:20 51°16.343 2°53.315 332.4 1.2 249 11.5
2006-07-03 09:52:25 51°16.343 2°53.312 332.5 1.1 250 11.6
2006-07-03 09:52:30 51°16.342 2°53.31 332.5 1.2 251 11.6
2006-07-03 09:52:35 51°16.341 2°53.307 332.5 1.1 249 11.6
2006-07-03 09:52:40 51°16.341 2°53.305 332.6 1.2 250 11.6
2006-07-03 09:52:45 51°16.34 2°53.302 332.6 1.1 250 11.6
2006-07-03 09:52:50 51°16.34 2°53.3 332.7 1.2 249 11.6
2006-07-03 09:52:55 51°16.339 2°53.297 332.8 1.2 250 11.6
2006-07-03 09:53:00 51°16.338 2°53.295 332.8 1.2 249 11.6
2006-07-03 09:53:05 51°16.338 2°53.292 333 1.1 250 11.6
2006-07-03 09:53:10 51°16.337 2°53.29 333 1.2 250 11.6
2006-07-03 09:53:14 51°16.337 2°53.288 333.1 1.1 250 11.6
2006-07-03 09:53:20 51°16.336 2°53.285 333.1 1.2 247 11.6
2006-07-03 09:53:24 51°16.335 2°53.283 333.2 1.2 247 11.6
2006-07-03 09:53:30 51°16.335 2°53.28 333.3 1.2 248 11.6
2006-07-03 09:53:35 51°16.334 2°53.278 333.3 1.1 247 11.6
2006-07-03 09:53:40 51°16.334 2°53.275 333.3 1.2 248 11.6
2006-07-03 09:53:45 51°16.333 2°53.273 333.3 1.1 252 11.6
2006-07-03 09:53:50 51°16.332 2°53.271 333.3 1.2 250 11.6
2006-07-03 09:53:55 51°16.332 2°53.269 333.3 1.1 250 11.6
2006-07-03 09:54:00 51°16.331 2°53.267 333.3 1.2 249 11.6
2006-07-03 09:54:05 51°16.33 2°53.265 333.3 1.1 249 11.6
2006-07-03 09:54:10 51°16.329 2°53.263 333.3 1.2 249 11.6
2006-07-03 09:54:15 51°16.329 2°53.26 333.6 1.1 250 11.6
2006-07-03 09:54:20 51°16.328 2°53.257 333.6 1.2 250 11.6
2006-07-03 09:54:25 51°16.328 2°53.255 333.6 1.2 251 11.6
2006-07-03 09:54:30 51°16.327 2°53.252 333.6 1.2 250 11.6
2006-07-03 09:54:35 51°16.327 2°53.25 333.5 1.2 250 11.6
2006-07-03 09:54:40 51°16.326 2°53.247 333.5 1.2 249 11.6
2006-07-03 09:54:45 51°16.326 2°53.244 333.5 1.2 249 11.6
2006-07-03 09:54:50 51°16.325 2°53.242 333.4 1.2 250 11.6
2006-07-03 09:54:55 51°16.325 2°53.239 333.4 1.2 249 11.6
2006-07-03 09:55:00 51°16.324 2°53.237 333.3 1.2 249 11.6
2006-07-03 09:55:05 51°16.324 2°53.234 333.1 1.2 250 11.6
2006-07-03 09:55:10 51°16.323 2°53.232 333.1 1.2 248 11.6
2006-07-03 09:55:14 51°16.323 2°53.23 333.1 1.2 250 11.7
2006-07-03 09:55:19 51°16.323 2°53.227 333.1 1.2 250 11.6
2006-07-03 09:55:25 51°16.322 2°53.224 333.1 1.2 250 11.6
2006-07-03 09:55:30 51°16.322 2°53.221 333.1 1.2 250 11.6
2006-07-03 09:55:34 51°16.321 2°53.219 333.1 1.2 248 11.6
2006-07-03 09:55:40 51°16.32 2°53.216 333 1.2 248 11.6
2006-07-03 09:55:45 51°16.32 2°53.214 333 1.2 249 11.6
2006-07-03 09:55:50 51°16.319 2°53.211 332.9 1.2 249 11.6
2006-07-03 09:55:55 51°16.319 2°53.209 332.8 1.2 249 11.6
2006-07-03 09:56:00 51°16.318 2°53.206 332.8 1.2 251 11.6
2006-07-03 09:56:05 51°16.318 2°53.204 332.7 1.2 250 11.6
2006-07-03 09:56:10 51°16.317 2°53.201 332.7 1.2 249 11.6
2006-07-03 09:56:15 51°16.317 2°53.198 332.7 1.2 250 11.6
2006-07-03 09:56:21 51°16.316 2°53.195 332.7 1.2 248 11.6
2006-07-03 09:56:25 51°16.316 2°53.193 332.7 1.2 248 11.6
2006-07-03 09:56:31 51°16.315 2°53.19 332.7 1.2 249 11.7
2006-07-03 09:56:34 51°16.315 2°53.189 332.6 1.2 248 11.6
2006-07-03 09:56:39 51°16.314 2°53.186 332.5 1.2 250 11.6
2006-07-03 09:56:45 51°16.314 2°53.183 332.4 1.2 251 11.6
2006-07-03 09:56:50 51°16.313 2°53.181 332.4 1.2 252 11.6
2006-07-03 09:56:56 51°16.312 2°53.178 332.4 1.2 250 11.6
2006-07-03 09:57:00 51°16.312 2°53.175 332.4 1.2 250 11.6
2006-07-03 09:57:05 51°16.311 2°53.173 332.4 1.2 248 11.6
2006-07-03 09:57:10 51°16.311 2°53.17 332.3 1.2 249 11.6
2006-07-03 09:57:15 51°16.31 2°53.168 332.2 1.2 249 11.6
2006-07-03 09:57:20 51°16.31 2°53.165 332.1 1.2 249 11.6
2006-07-03 09:57:25 51°16.309 2°53.163 332 1.2 249 11.6
2006-07-03 09:57:30 51°16.308 2°53.16 331.9 1.2 249 11.6
2006-07-03 09:57:35 51°16.308 2°53.158 331.8 1.2 248 11.6
2006-07-03 09:57:40 51°16.307 2°53.155 331.6 1.2 249 11.6
2006-07-03 09:57:45 51°16.307 2°53.153 331.5 1.2 248 11.6
2006-07-03 09:57:50 51°16.306 2°53.15 331.3 1.2 248 11.6
2006-07-03 09:57:55 51°16.305 2°53.148 331.2 1.2 248 11.6
2006-07-03 09:58:00 51°16.305 2°53.145 331.1 1.2 250 11.6
2006-07-03 09:58:05 51°16.304 2°53.142 331 1.2 250 11.6
2006-07-03 09:58:10 51°16.304 2°53.14 330.9 1.2 250 11.6
2006-07-03 09:58:15 51°16.303 2°53.138 330.8 1.2 249 11.6
2006-07-03 09:58:20 51°16.303 2°53.135 330.8 1.3 250 11.6
2006-07-03 09:58:25 51°16.302 2°53.132 330.8 1.2 251 11.6
2006-07-03 09:58:30 51°16.301 2°53.13 330.7 1.3 249 11.6
2006-07-03 09:58:35 51°16.301 2°53.127 330.7 1.2 250 11.6
2006-07-03 09:58:40 51°16.3 2°53.125 330.7 1.2 249 11.6
2006-07-03 09:58:44 51°16.3 2°53.123 330.7 1.2 252 11.6
2006-07-03 09:58:50 51°16.299 2°53.12 330.7 1.2 250 11.6
2006-07-03 09:58:54 51°16.299 2°53.118 330.8 1.2 250 11.6
2006-07-03 09:59:00 51°16.298 2°53.115 330.8 1.2 249 11.6
2006-07-03 09:59:05 51°16.297 2°53.112 330.9 1.2 249 11.6
2006-07-03 09:59:10 51°16.297 2°53.11 331 1.2 252 11.6
2006-07-03 09:59:14 51°16.296 2°53.108 331.1 1.2 251 11.7
2006-07-03 09:59:20 51°16.295 2°53.105 331.3 1.2 249 11.6
2006-07-03 09:59:25 51°16.295 2°53.102 331.3 1.2 249 11.6
2006-07-03 09:59:30 51°16.294 2°53.1 331.4 1.2 251 11.6
2006-07-03 09:59:34 51°16.294 2°53.098 331.4 1.2 251 11.6
2006-07-03 09:59:40 51°16.293 2°53.095 331.5 1.2 254 11.6
2006-07-03 09:59:45 51°16.292 2°53.093 331.6 1.2 252 11.6
2006-07-03 09:59:50 51°16.292 2°53.09 331.6 1.2 250 11.6
2006-07-03 09:59:54 51°16.291 2°53.088 331.6 1.2 249 11.6
2006-07-03 10:00:00 51°16.29 2°53.085 331.7 1.2 248 11.6
2006-07-03 10:00:05 51°16.29 2°53.083 331.8 1.2 250 11.6
2006-07-03 10:00:10 51°16.289 2°53.08 332 1.2 249 11.6
2006-07-03 10:00:14 51°16.289 2°53.078 332.2 1.2 251 11.6
2006-07-03 10:00:20 51°16.288 2°53.075 332.3 1.2 249 11.6
2006-07-03 10:00:24 51°16.288 2°53.073 332.4 1.2 250 11.6
2006-07-03 10:00:30 51°16.287 2°53.07 332.6 1.2 252 11.6
2006-07-03 10:00:33 51°16.287 2°53.069 332.8 1.2 251 11.6
2006-07-03 10:00:39 51°16.286 2°53.066 333 1.2 251 11.6
2006-07-03 10:00:45 51°16.286 2°53.063 333.1 1.2 252 11.6
2006-07-03 10:00:50 51°16.285 2°53.06 333.2 1.2 251 11.6
2006-07-03 10:00:54 51°16.284 2°53.058 333.3 1.2 250 11.6
2006-07-03 10:01:00 51°16.284 2°53.055 333.5 1.2 250 11.6
2006-07-03 10:01:05 51°16.283 2°53.052 333.5 1.2 250 11.7
2006-07-03 10:01:10 51°16.282 2°53.05 333.8 1.2 248 11.6
2006-07-03 10:01:15 51°16.282 2°53.048 333.8 1.2 251 11.6
2006-07-03 10:01:20 51°16.281 2°53.045 334 1.2 252 11.6
2006-07-03 10:01:25 51°16.281 2°53.043 334.1 1.2 251 11.6
2006-07-03 10:01:30 51°16.28 2°53.04 334.5 1.3 250 11.6
2006-07-03 10:01:33 51°16.28 2°53.038 334.5 1.2 249 11.7
2006-07-03 10:01:40 51°16.279 2°53.035 334.6 1.3 250 11.6
2006-07-03 10:01:45 51°16.278 2°53.032 334.6 1.2 253 11.6
2006-07-03 10:01:50 51°16.278 2°53.03 334.7 1.2 252 11.7
2006-07-03 10:01:54 51°16.277 2°53.028 334.8 1.2 252 11.6
2006-07-03 10:01:59 51°16.277 2°53.025 334.9 1.3 249 11.6
2006-07-03 10:02:05 51°16.276 2°53.022 334.9 1.2 248 11.7
2006-07-03 10:02:10 51°16.276 2°53.02 334.9 1.3 251 11.7
2006-07-03 10:02:15 51°16.275 2°53.017 335.1 1.2 249 11.6
2006-07-03 10:02:20 51°16.275 2°53.015 335.1 1.2 248 11.7
2006-07-03 10:02:25 51°16.274 2°53.012 335.2 1.2 251 11.7
2006-07-03 10:02:30 51°16.273 2°53.01 335.3 1.3 250 11.7
2006-07-03 10:02:34 51°16.273 2°53.008 335.3 1.2 249 11.7
2006-07-03 10:02:40 51°16.272 2°53.005 335.5 1.3 249 11.7
2006-07-03 10:02:44 51°16.272 2°53.003 335.5 1.2 249 11.7
2006-07-03 10:02:50 51°16.271 2°53 335.7 1.3 248 11.7
2006-07-03 10:02:54 51°16.27 2°52.997 335.8 1.2 251 11.7
2006-07-03 10:03:00 51°16.269 2°52.994 335.9 1.2 250 11.7
2006-07-03 10:03:05 51°16.269 2°52.992 335.9 1.3 248 11.7
2006-07-03 10:03:10 51°16.268 2°52.989 336.1 1.2 248 11.6
2006-07-03 10:03:15 51°16.268 2°52.986 336.1 1.3 248 11.7
2006-07-03 10:03:20 51°16.267 2°52.984 336.1 1.2 249 11.7
2006-07-03 10:03:25 51°16.266 2°52.981 336.2 1.3 249 11.7
2006-07-03 10:03:30 51°16.266 2°52.978 336.3 1.2 249 11.7
2006-07-03 10:03:35 51°16.265 2°52.976 336.4 1.3 252 11.7
2006-07-03 10:03:40 51°16.265 2°52.973 336.4 1.3 249 11.7
2006-07-03 10:03:45 51°16.264 2°52.971 336.5 1.3 250 11.7
2006-07-03 10:03:50 51°16.263 2°52.968 336.6 1.3 251 11.7
2006-07-03 10:03:56 51°16.263 2°52.965 336.5 1.3 249 11.7
2006-07-03 10:04:00 51°16.262 2°52.963 336.7 1.3 249 11.7
2006-07-03 10:04:05 51°16.261 2°52.96 336.6 1.3 248 11.7
2006-07-03 10:04:10 51°16.261 2°52.958 336.6 1.3 249 11.7
2006-07-03 10:04:15 51°16.26 2°52.955 336.7 1.3 249 11.7
2006-07-03 10:04:20 51°16.26 2°52.952 336.8 1.3 249 11.7
2006-07-03 10:04:25 51°16.259 2°52.95 336.9 1.2 249 11.7
2006-07-03 10:04:30 51°16.258 2°52.947 336.9 1.3 250 11.7
2006-07-03 10:04:35 51°16.257 2°52.945 336.9 1.3 249 11.7
2006-07-03 10:04:40 51°16.257 2°52.942 337 1.3 251 11.7
2006-07-03 10:04:45 51°16.256 2°52.94 337.1 1.3 252 11.7
2006-07-03 10:04:50 51°16.256 2°52.937 337.3 1.3 249 11.7
2006-07-03 10:04:55 51°16.255 2°52.935 337.4 1.3 249 11.6
2006-07-03 10:05:00 51°16.254 2°52.932 337.5 1.2 250 11.6
2006-07-03 10:05:04 51°16.254 2°52.93 337.6 1.3 249 11.7
2006-07-03 10:05:10 51°16.253 2°52.927 337.7 1.2 254 11.7
2006-07-03 10:05:14 51°16.253 2°52.925 337.9 1.3 249 11.7
2006-07-03 10:05:20 51°16.252 2°52.922 338.1 1.2 249 11.7
2006-07-03 10:05:25 51°16.251 2°52.919 338.2 1.3 248 11.7
2006-07-03 10:05:30 51°16.251 2°52.916 338.3 1.2 247 11.7
2006-07-03 10:05:34 51°16.25 2°52.914 338.3 1.3 246 11.7
2006-07-03 10:05:40 51°16.249 2°52.912 338.7 1.3 248 11.7
2006-07-03 10:05:45 51°16.249 2°52.909 338.7 1.3 247 11.7
2006-07-03 10:05:50 51°16.248 2°52.907 338.9 1.2 245 11.8
2006-07-03 10:05:55 51°16.248 2°52.904 339.1 1.3 249 11.7
2006-07-03 10:06:00 51°16.247 2°52.902 339.4 1.2 246 11.6
2006-07-03 10:06:05 51°16.246 2°52.899 339.8 1.2 247 11.6
2006-07-03 10:06:10 51°16.246 2°52.896 340 1.2 247 11.7
2006-07-03 10:06:14 51°16.245 2°52.895 340.4 1.2 247 11.6
2006-07-03 10:06:20 51°16.244 2°52.892 340.8 1.2 247 11.7
2006-07-03 10:06:24 51°16.243 2°52.89 340.9 1.2 246 11.7
2006-07-03 10:06:30 51°16.242 2°52.887 341.1 1.2 245 11.7
2006-07-03 10:06:34 51°16.242 2°52.885 341.5 1.2 245 11.7
2006-07-03 10:06:40 51°16.242 2°52.882 341.6 1.2 247 11.7
2006-07-03 10:06:45 51°16.241 2°52.88 341.8 1.2 245 11.7
2006-07-03 10:06:50 51°16.24 2°52.877 341.8 1.2 245 11.7
2006-07-03 10:06:55 51°16.239 2°52.875 341.8 1.2 245 11.7
2006-07-03 10:07:00 51°16.239 2°52.872 341.8 1.2 246 11.7
2006-07-03 10:07:05 51°16.238 2°52.87 341.8 1.2 245 11.8
2006-07-03 10:07:10 51°16.237 2°52.867 341.8 1.2 245 11.7
2006-07-03 10:07:14 51°16.236 2°52.865 341.6 1.2 245 11.7
2006-07-03 10:07:20 51°16.236 2°52.863 341.5 1.2 246 11.7
2006-07-03 10:07:25 51°16.235 2°52.86 341.4 1.2 247 11.7
2006-07-03 10:07:30 51°16.234 2°52.858 341.3 1.2 247 11.7
2006-07-03 10:07:35 51°16.233 2°52.855 341.3 1.2 245 11.7
2006-07-03 10:07:39 51°16.233 2°52.853 341.2 1.2 245 11.7
2006-07-03 10:07:45 51°16.232 2°52.85 341.2 1.3 245 11.7
2006-07-03 10:07:50 51°16.231 2°52.848 341.1 1.2 246 11.7
2006-07-03 10:07:54 51°16.231 2°52.846 341.1 1.2 245 11.7
2006-07-03 10:08:00 51°16.23 2°52.843 340.8 1.2 244 11.7
2006-07-03 10:08:05 51°16.229 2°52.84 340.6 1.3 247 11.7
2006-07-03 10:08:10 51°16.228 2°52.838 340.4 1.2 245 11.7
2006-07-03 10:08:15 51°16.227 2°52.835 340.1 1.2 244 11.7
2006-07-03 10:08:20 51°16.227 2°52.833 339.6 1.3 245 11.7
2006-07-03 10:08:25 51°16.226 2°52.83 339.4 1.3 245 11.7
2006-07-03 10:08:30 51°16.225 2°52.828 339.2 1.3 246 11.7
2006-07-03 10:08:35 51°16.225 2°52.825 338.9 1.3 246 11.7
2006-07-03 10:08:40 51°16.224 2°52.823 338.5 1.3 245 11.7
2006-07-03 10:08:45 51°16.223 2°52.82 338.2 1.3 245 11.7
2006-07-03 10:08:50 51°16.222 2°52.818 337.8 1.3 245 11.7
2006-07-03 10:08:55 51°16.222 2°52.815 337.3 1.3 245 11.7
2006-07-03 10:09:00 51°16.221 2°52.813 336.8 1.3 247 11.7
2006-07-03 10:09:05 51°16.22 2°52.81 336.5 1.3 245 11.7
2006-07-03 10:09:10 51°16.219 2°52.808 335.9 1.3 245 11.7
2006-07-03 10:09:14 51°16.219 2°52.806 335.4 1.3 246 11.7
2006-07-03 10:09:20 51°16.218 2°52.803 335 1.2 245 11.7
2006-07-03 10:09:25 51°16.218 2°52.8 334.5 1.3 249 11.7
2006-07-03 10:09:30 51°16.217 2°52.797 334.1 1.2 254 11.7
2006-07-03 10:09:34 51°16.217 2°52.795 333.9 1.3 263 11.7
2006-07-03 10:09:40 51°16.217 2°52.791 334.2 1.4 275 11.7
2006-07-03 10:09:45 51°16.218 2°52.788 335 1.6 288 11.7
2006-07-03 10:09:50 51°16.219 2°52.784 336.8 1.8 298 11.7
2006-07-03 10:09:54 51°16.221 2°52.781 339.7 2.1 308 11.7
2006-07-03 10:10:00 51°16.223 2°52.777 343.2 2.2 311 11.7
2006-07-03 10:10:05 51°16.226 2°52.773 347.2 2.4 321 11.7
2006-07-03 10:10:10 51°16.229 2°52.77 351.4 2.5 330 11.8
2006-07-03 10:10:14 51°16.232 2°52.769 355.9 2.6 335 11.7
2006-07-03 10:10:20 51°16.236 2°52.766 0.5 2.7 338 11.8
2006-07-03 10:10:25 51°16.24 2°52.765 5 2.8 346 11.7
2006-07-03 10:10:30 51°16.244 2°52.764 9.4 2.9 352 11.7
2006-07-03 10:10:35 51°16.248 2°52.764 13.7 3 356 11.7
2006-07-03 10:10:40 51°16.252 2°52.764 18.1 3.1 2 11.7
2006-07-03 10:10:45 51°16.257 2°52.766 22.4 3.1 9 11.7
2006-07-03 10:10:50 51°16.261 2°52.767 26.7 3.1 14 11.7
2006-07-03 10:10:55 51°16.265 2°52.77 31.2 3.2 19 11.7
2006-07-03 10:11:00 51°16.269 2°52.774 35.5 3.2 26 11.7
2006-07-03 10:11:04 51°16.272 2°52.777 39.9 3.2 32 11.7
2006-07-03 10:11:10 51°16.276 2°52.782 44.3 3.3 35 11.7
2006-07-03 10:11:14 51°16.279 2°52.787 48.9 3.3 44 11.7
2006-07-03 10:11:20 51°16.282 2°52.794 54.4 3.2 55 11.7
2006-07-03 10:11:25 51°16.284 2°52.8 60.6 3.1 61 11.6
2006-07-03 10:11:30 51°16.285 2°52.806 67.3 3.1 70 11.6
2006-07-03 10:11:35 51°16.286 2°52.813 73.8 3 79 11.6
2006-07-03 10:11:40 51°16.285 2°52.82 80.5 3.1 89 11.6
2006-07-03 10:11:45 51°16.285 2°52.827 87.1 3.1 94 11.7
2006-07-03 10:11:50 51°16.284 2°52.834 93.6 3.2 104 11.6
2006-07-03 10:11:55 51°16.282 2°52.841 99.3 3.3 109 11.7
2006-07-03 10:12:00 51°16.28 2°52.848 103.6 3.5 114 11.5
2006-07-03 10:12:05 51°16.277 2°52.855 107.2 3.6 117 11.6
2006-07-03 10:12:10 51°16.275 2°52.862 110.3 3.8 120 11.6
2006-07-03 10:12:14 51°16.272 2°52.868 112.6 3.9 123 11.7
2006-07-03 10:12:19 51°16.269 2°52.876 114 4 123 11.6
2006-07-03 10:12:25 51°16.265 2°52.885 114.7 4.1 124 11.7
2006-07-03 10:12:30 51°16.262 2°52.893 115.4 4.3 125 11.6
2006-07-03 10:12:35 51°16.258 2°52.9 115.4 4.3 125 11.6
2006-07-03 10:12:40 51°16.255 2°52.909 115.6 4.4 125 11.6
2006-07-03 10:12:44 51°16.252 2°52.915 115.6 4.5 125 11.6
2006-07-03 10:12:50 51°16.248 2°52.925 115.5 4.6 125 11.6
2006-07-03 10:12:54 51°16.245 2°52.932 115.4 4.7 125 11.6
2006-07-03 10:13:01 51°16.24 2°52.944 114.7 4.7 123 11.6
2006-07-03 10:13:04 51°16.238 2°52.95 113.9 4.7 122 11.6
2006-07-03 10:13:09 51°16.234 2°52.959 113.1 4.7 120 11.5
2006-07-03 10:13:14 51°16.231 2°52.968 111.6 4.7 118 11.5
2006-07-03 10:13:20 51°16.228 2°52.979 109.7 4.7 116 11.5
2006-07-03 10:13:25 51°16.225 2°52.989 107.7 4.7 114 11.5
2006-07-03 10:13:30 51°16.223 2°52.999 105.8 4.7 111 11.5
2006-07-03 10:13:34 51°16.221 2°53.007 104.1 4.7 110 11.5
2006-07-03 10:13:40 51°16.219 2°53.018 102.6 4.7 108 11.5
2006-07-03 10:13:45 51°16.217 2°53.028 101.3 4.6 106 11.5
2006-07-03 10:13:50 51°16.215 2°53.038 100.1 4.7 105 11.5
2006-07-03 10:13:54 51°16.214 2°53.046 99 4.7 104 11.5
2006-07-03 10:14:00 51°16.212 2°53.059 98.2 4.7 103 11.5
2006-07-03 10:14:05 51°16.211 2°53.069 97.2 4.7 101 11.5
2006-07-03 10:14:10 51°16.21 2°53.08 96.5 4.8 101 11.5